Time;durP1;ratioP1;P1;durP2;ratioP2;P2;SDS_P1;SDS_P2;PMS_P1;PMS_P2;Temp;Humidity;BMP_temperature;BMP_pressure;BME280_temperature;BME280_humidity;BME280_pressure;Samples;Min_cycle;Max_cycle;Signal;HPM_P1;HPM_P2
2023/12/21 00:00:06;;;;;;;;;;;;;;;-0.79;100.00;94718.09;5133100;28;1060;-58
2023/12/21 00:02:32;;;;;;;;;;;;;;;-0.94;100.00;94719.13;5134203;27;1106;-58
2023/12/21 00:04:58;;;;;;;;;;;;;;;-1.10;100.00;94719.28;5134230;27;1007;-58
2023/12/21 00:07:24;;;;;;;;;;;;;;;-1.32;100.00;94706.75;5134053;27;1968;-58
2023/12/21 00:09:50;;;;;;;;;;;;;;;-1.23;100.00;94717.50;5134038;27;971;-58
2023/12/21 00:12:16;;;;;;;;;;;;;;;-1.16;100.00;94704.78;5133873;27;957;-58
2023/12/21 00:14:42;;;;;;;;;;;;;;;-1.12;100.00;94719.44;5133987;27;1043;-58
2023/12/21 00:17:08;;;;;;;;;;;;;;;-1.00;100.00;94717.75;5134094;27;999;-58
2023/12/21 00:19:34;;;;;;;;;;;;;;;-1.01;100.00;94729.19;5133754;27;973;-58
2023/12/21 00:22:00;;;;;;;;;;;;;;;-1.09;100.00;94737.56;5134072;27;1043;-58
2023/12/21 00:24:26;;;;;;;;;;;;;;;-1.11;100.00;94734.19;5133698;27;1075;-58
2023/12/21 00:26:52;;;;;;;;;;;;;;;-0.83;100.00;94742.88;5133880;27;2005;-58
2023/12/21 00:29:18;;;;;;;;;;;;;;;-0.69;100.00;94739.34;5133899;27;1051;-58
2023/12/21 00:31:44;;;;;;;;;;;;;;;-0.83;100.00;94737.63;5133788;27;1035;-58
2023/12/21 00:34:10;;;;;;;;;;;;;;;-0.70;100.00;94740.25;5133634;27;967;-58
2023/12/21 00:36:36;;;;;;;;;;;;;;;-0.63;100.00;94745.00;5133943;27;988;-58
2023/12/21 00:39:02;;;;;;;;;;;;;;;-0.74;100.00;94736.16;5133843;27;957;-58
2023/12/21 00:41:28;;;;;;;;;;;;;;;-0.83;100.00;94751.59;5133532;27;1095;-58
2023/12/21 00:43:54;;;;;;;;;;;;;;;-0.80;100.00;94747.91;5133700;27;933;-58
2023/12/21 00:46:20;;;;;;;;;;;;;;;-0.80;100.00;94747.91;5133445;27;1913;-58
2023/12/21 00:48:46;;;;;;;;;;;;;;;-0.62;100.00;94753.75;5133378;27;1088;-58
2023/12/21 00:51:12;;;;;;;;;;;;;;;-0.55;100.00;94741.03;5133434;27;1072;-58
2023/12/21 00:53:38;;;;;;;;;;;;;;;-0.67;100.00;94753.19;5133941;27;1021;-58
2023/12/21 00:56:04;;;;;;;;;;;;;;;-0.75;100.00;94751.09;5117923;27;1160;-58
2023/12/21 00:58:30;;;;;;;;;;;;;;;-0.82;100.00;94750.63;5116620;28;1051;-58
2023/12/21 01:00:56;;;;;;;;;;;;;;;-0.73;100.00;94754.44;5116847;28;1032;-58
2023/12/21 01:03:22;;;;;;;;;;;;;;;-1.05;100.00;94760.03;5116713;28;1035;-58
2023/12/21 01:05:48;;;;;;;;;;;;;;;-1.18;100.00;94759.16;5116769;28;1047;-58
2023/12/21 01:08:14;;;;;;;;;;;;;;;-1.25;100.00;94757.88;5116487;28;1983;-58
2023/12/21 01:10:40;;;;;;;;;;;;;;;-1.28;100.00;94748.41;5116713;28;944;-58
2023/12/21 01:13:06;;;;;;;;;;;;;;;-1.36;100.00;94747.25;5115331;28;1056;-58
2023/12/21 01:15:32;;;;;;;;;;;;;;;-1.08;100.00;94734.00;5116261;28;925;-58
2023/12/21 01:17:58;;;;;;;;;;;;;;;-1.35;100.00;94733.19;5116501;27;1146;-58
2023/12/21 01:20:24;;;;;;;;;;;;;;;-1.44;100.00;94735.47;5116357;28;999;-58
2023/12/21 01:22:50;;;;;;;;;;;;;;;-1.55;100.00;94743.19;5116302;28;1039;-58
2023/12/21 01:25:16;;;;;;;;;;;;;;;-1.58;100.00;94740.75;5115026;28;985;-58
2023/12/21 01:27:42;;;;;;;;;;;;;;;-1.49;100.00;94739.31;5116271;28;1902;-58
2023/12/21 01:30:08;;;;;;;;;;;;;;;-1.49;100.00;94753.28;5116003;28;1091;-58
2023/12/21 01:32:34;;;;;;;;;;;;;;;-1.33;100.00;94744.41;5115910;28;1067;-58
2023/12/21 01:35:00;;;;;;;;;;;;;;;-1.20;100.00;94751.38;5115870;28;1048;-58
2023/12/21 01:37:26;;;;;;;;;;;;;;;-1.12;100.00;94745.66;5116132;28;965;-58
2023/12/21 01:39:52;;;;;;;;;;;;;;;-0.99;100.00;94743.03;5115826;28;1123;-58
2023/12/21 01:42:19;;;;;;;;;;;;;;;-0.99;100.00;94754.41;5115812;28;1031;-58
2023/12/21 01:44:45;;;;;;;;;;;;;;;-0.87;100.00;94749.28;5116043;28;1067;-58
2023/12/21 01:47:11;;;;;;;;;;;;;;;-0.85;100.00;94742.97;5115301;28;1906;-58
2023/12/21 01:49:37;;;;;;;;;;;;;;;-0.80;100.00;94740.03;5115984;28;999;-58
2023/12/21 01:52:05;;;;;;;;;;;;;;;-0.63;100.00;94733.66;5115818;28;1028;-58
2023/12/21 01:54:31;;;;;;;;;;;;;;;-0.55;100.00;94734.00;5121470;27;1160;-58
2023/12/21 01:56:57;;;;;;;;;;;;;;;-0.60;100.00;94734.28;5136176;27;1024;-58
2023/12/21 01:59:24;;;;;;;;;;;;;;;-0.68;99.93;94738.41;5136215;27;980;-58
2023/12/21 02:01:49;;;;;;;;;;;;;;;-0.72;99.95;94735.13;5136219;27;1196;-58
2023/12/21 02:04:15;;;;;;;;;;;;;;;-0.74;99.75;94737.03;5136069;27;1040;-58
2023/12/21 02:06:42;;;;;;;;;;;;;;;-0.83;100.00;94727.13;5135850;27;1991;-58
2023/12/21 02:09:07;;;;;;;;;;;;;;;-0.94;100.00;94735.72;5136124;27;1016;-58
2023/12/21 02:11:33;;;;;;;;;;;;;;;-1.17;100.00;94736.41;5135768;27;1047;-58
2023/12/21 02:14:00;;;;;;;;;;;;;;;-1.30;100.00;94744.22;5135833;27;992;-58
2023/12/21 02:16:52;;;;;;;;;;;;;;;-1.52;100.00;94740.34;5134340;27;1021;-58
2023/12/21 02:19:19;;;;;;;;;;;;;;;-1.71;100.00;94735.44;5132670;27;1082;-58
2023/12/21 02:21:46;;;;;;;;;;;;;;;-1.71;100.00;94734.59;5135832;27;1044;-58
2023/12/21 02:24:15;;;;;;;;;;;;;;;-1.52;100.00;94736.88;5135411;27;1122;-58
2023/12/21 02:26:42;;;;;;;;;;;;;;;-1.27;100.00;94731.75;5135716;27;1898;-58
2023/12/21 02:29:08;;;;;;;;;;;;;;;-1.12;100.00;94722.03;5135655;27;1044;-58
2023/12/21 02:31:34;;;;;;;;;;;;;;;-1.03;100.00;94736.31;5135580;27;1026;-58
2023/12/21 02:34:00;;;;;;;;;;;;;;;-1.12;100.00;94731.69;5135561;27;1130;-58
2023/12/21 02:36:26;;;;;;;;;;;;;;;-1.29;100.00;94733.63;5135563;27;1051;-58
2023/12/21 02:38:52;;;;;;;;;;;;;;;-1.39;100.00;94716.81;5135565;27;1125;-58
2023/12/21 02:41:18;;;;;;;;;;;;;;;-1.18;100.00;94735.53;5135390;27;973;-58
2023/12/21 02:43:44;;;;;;;;;;;;;;;-1.20;100.00;94719.06;5135121;27;985;-58
2023/12/21 02:46:10;;;;;;;;;;;;;;;-1.20;100.00;94719.06;5135317;27;1905;-58
2023/12/21 02:48:36;;;;;;;;;;;;;;;-1.28;100.00;94721.34;5134960;27;1170;-58
2023/12/21 02:51:02;;;;;;;;;;;;;;;-1.30;100.00;94726.69;5135278;27;989;-58
2023/12/21 02:53:28;;;;;;;;;;;;;;;-1.22;100.00;94715.69;5135023;27;999;-58
2023/12/21 02:55:54;;;;;;;;;;;;;;;-1.26;100.00;94716.84;5117473;27;1224;-58
2023/12/21 02:58:19;;;;;;;;;;;;;;;-1.20;100.00;94704.16;5114128;28;1092;-58
2023/12/21 03:00:45;;;;;;;;;;;;;;;-1.04;100.00;94713.66;5114259;28;1049;-58
2023/12/21 03:03:11;;;;;;;;;;;;;;;-0.95;100.00;94709.56;5114356;28;989;-58
2023/12/21 03:05:37;;;;;;;;;;;;;;;-1.07;100.00;94709.44;5114470;28;997;-58
2023/12/21 03:08:03;;;;;;;;;;;;;;;-1.31;100.00;94716.31;5114366;28;1988;-58
2023/12/21 03:10:29;;;;;;;;;;;;;;;-1.41;100.00;94700.31;5114297;28;971;-58
2023/12/21 03:12:55;;;;;;;;;;;;;;;-1.31;100.00;94705.81;5113991;28;969;-58
2023/12/21 03:15:21;;;;;;;;;;;;;;;-1.40;100.00;94710.72;5114133;28;1340;-58
2023/12/21 03:17:47;;;;;;;;;;;;;;;-1.47;100.00;94706.81;5113843;28;968;-58
2023/12/21 03:20:13;;;;;;;;;;;;;;;-1.28;100.00;94708.25;5114171;28;1012;-58
2023/12/21 03:22:39;;;;;;;;;;;;;;;-1.12;100.00;94706.31;5114243;28;1112;-58
2023/12/21 03:25:05;;;;;;;;;;;;;;;-0.89;100.00;94701.28;5114104;28;968;-58
2023/12/21 03:27:31;;;;;;;;;;;;;;;-1.02;98.94;94712.59;5113628;28;1933;-58
2023/12/21 03:29:57;;;;;;;;;;;;;;;-1.17;100.00;94710.16;5114079;28;953;-58
2023/12/21 03:32:23;;;;;;;;;;;;;;;-1.22;100.00;94708.66;5114077;28;1051;-58
2023/12/21 03:34:50;;;;;;;;;;;;;;;-1.06;100.00;94711.13;5114014;28;1012;-58
2023/12/21 03:37:16;;;;;;;;;;;;;;;-0.96;100.00;94714.00;5113621;28;1032;-58
2023/12/21 03:39:41;;;;;;;;;;;;;;;-0.92;100.00;94709.38;5113642;28;1036;-58
2023/12/21 03:42:07;;;;;;;;;;;;;;;-0.95;100.00;94723.53;5113557;28;1087;-58
2023/12/21 03:44:33;;;;;;;;;;;;;;;-0.84;100.00;94721.03;5127982;27;1079;-58
2023/12/21 03:47:00;;;;;;;;;;;;;;;-0.91;99.66;94714.53;5133893;27;1986;-58
2023/12/21 03:49:28;;;;;;;;;;;;;;;-0.89;99.81;94724.91;5134229;28;1019;-58
2023/12/21 03:51:57;;;;;;;;;;;;;;;-0.88;100.00;94718.72;5134200;27;1122;-57
2023/12/21 03:54:23;;;;;;;;;;;;;;;-0.78;100.00;94709.28;5129082;28;1152;-58
2023/12/21 03:56:49;;;;;;;;;;;;;;;-0.73;99.87;94714.22;5113754;28;1000;-57
2023/12/21 03:59:15;;;;;;;;;;;;;;;-0.85;100.00;94715.91;5113625;28;996;-57
2023/12/21 04:01:41;;;;;;;;;;;;;;;-0.86;100.00;94732.59;5113756;28;1059;-57
2023/12/21 04:04:07;;;;;;;;;;;;;;;-0.94;100.00;94729.63;5113614;28;1040;-57
2023/12/21 04:06:33;;;;;;;;;;;;;;;-0.87;100.00;94731.75;5113226;28;1909;-58
2023/12/21 04:08:59;;;;;;;;;;;;;;;-1.07;100.00;94726.97;5120197;28;1626;-58
2023/12/21 04:11:25;;;;;;;;;;;;;;;-1.00;100.00;94733.50;5125206;28;1145;-58
2023/12/21 04:13:51;;;;;;;;;;;;;;;-0.83;100.00;94729.75;5122367;28;1346;-58
2023/12/21 04:16:17;;;;;;;;;;;;;;;-0.84;100.00;94728.06;5124281;28;1165;-57
2023/12/21 04:18:43;;;;;;;;;;;;;;;-0.91;100.00;94732.91;5123005;28;1243;-58
2023/12/21 04:21:09;;;;;;;;;;;;;;;-1.25;100.00;94729.00;5122434;27;1362;-57
2023/12/21 04:23:35;;;;;;;;;;;;;;;-1.41;100.00;94729.16;5123977;28;1283;-58
2023/12/21 04:26:01;;;;;;;;;;;;;;;-1.44;100.00;94726.75;5122988;28;1243;-60
2023/12/21 04:28:27;;;;;;;;;;;;;;;-1.61;100.00;94728.69;5122681;28;1203;-59
2023/12/21 04:30:53;;;;;;;;;;;;;;;-1.72;100.00;94720.66;5128287;27;1236;-59
2023/12/21 04:33:19;;;;;;;;;;;;;;;-1.89;100.00;94728.75;5126513;27;1200;-59
2023/12/21 04:35:45;;;;;;;;;;;;;;;-1.88;100.00;94731.25;5126751;27;1287;-58
2023/12/21 04:38:12;;;;;;;;;;;;;;;-1.81;100.00;94729.94;5127834;27;1330;-59
2023/12/21 04:40:38;;;;;;;;;;;;;;;-1.89;100.00;94731.38;5126247;27;1220;-59
2023/12/21 04:43:05;;;;;;;;;;;;;;;-1.98;100.00;94732.78;5127008;27;1327;-58
2023/12/21 04:45:32;;;;;;;;;;;;;;;-1.88;100.00;94731.25;5127680;27;1599;-58
2023/12/21 04:47:57;;;;;;;;;;;;;;;-1.59;100.00;94739.06;5125780;27;1910;-58
2023/12/21 04:50:23;;;;;;;;;;;;;;;-1.61;100.00;94744.41;5123773;27;1290;-58
2023/12/21 04:52:51;;;;;;;;;;;;;;;-1.60;100.00;94746.06;5116809;28;1099;-58
2023/12/21 04:55:17;;;;;;;;;;;;;;;-1.51;100.00;94749.06;5129167;27;1176;-58
2023/12/21 04:57:43;;;;;;;;;;;;;;;-1.58;100.00;94753.84;5137252;27;1181;-58
2023/12/21 05:00:10;;;;;;;;;;;;;;;-1.67;100.00;94746.56;5137400;27;980;-58
2023/12/21 05:02:36;;;;;;;;;;;;;;;-1.74;100.00;94747.91;5137226;27;1039;-58
2023/12/21 05:05:02;;;;;;;;;;;;;;;-1.67;100.00;94752.66;5137415;27;1052;-58
2023/12/21 05:07:28;;;;;;;;;;;;;;;-1.89;100.00;94747.94;5136998;27;1976;-58
2023/12/21 05:10:00;;;;;;;;;;;;;;;-2.01;100.00;94743.44;5137228;27;1047;-58
2023/12/21 05:12:26;;;;;;;;;;;;;;;-2.01;100.00;94741.69;5137155;27;961;-58
2023/12/21 05:14:53;;;;;;;;;;;;;;;-1.85;100.00;94741.56;5137282;27;1055;-58
2023/12/21 05:17:19;;;;;;;;;;;;;;;-1.88;100.00;94735.66;5137036;27;976;-57
2023/12/21 05:19:46;;;;;;;;;;;;;;;-2.02;100.00;94741.78;5136833;27;1028;-58
2023/12/21 05:22:12;;;;;;;;;;;;;;;-2.01;100.00;94740.81;5137009;27;1036;-58
2023/12/21 05:24:38;;;;;;;;;;;;;;;-2.08;100.00;94736.91;5136978;27;1067;-58
2023/12/21 05:27:05;;;;;;;;;;;;;;;-2.18;100.00;94741.88;5136668;27;1909;-58
2023/12/21 05:29:30;;;;;;;;;;;;;;;-1.97;100.00;94752.81;5136750;27;965;-58
2023/12/21 05:31:56;;;;;;;;;;;;;;;-1.78;100.00;94748.09;5136908;27;972;-58
2023/12/21 05:34:22;;;;;;;;;;;;;;;-1.82;100.00;94743.13;5136681;27;1047;-57
2023/12/21 05:36:48;;;;;;;;;;;;;;;-1.72;100.00;94752.13;5136537;27;965;-58
2023/12/21 05:39:15;;;;;;;;;;;;;;;-1.51;100.00;94755.16;5136092;27;1047;-59
2023/12/21 05:41:41;;;;;;;;;;;;;;;-1.36;100.00;94763.00;5136243;27;1079;-58
2023/12/21 05:44:07;;;;;;;;;;;;;;;-1.23;99.58;94766.50;5136319;27;1181;-58
2023/12/21 05:46:33;;;;;;;;;;;;;;;-1.32;98.61;94772.34;5136308;27;1902;-58
2023/12/21 05:48:59;;;;;;;;;;;;;;;-1.23;99.41;94769.13;5136588;27;977;-57
2023/12/21 05:51:25;;;;;;;;;;;;;;;-1.25;96.97;94769.22;5136482;27;953;-57
2023/12/21 05:53:51;;;;;;;;;;;;;;;-1.36;95.35;94761.19;5135765;27;1212;-57
2023/12/21 05:56:17;;;;;;;;;;;;;;;-1.41;96.42;94763.25;5115684;28;987;-58
2023/12/21 05:58:43;;;;;;;;;;;;;;;-1.56;98.53;94759.84;5114241;28;1123;-57
2023/12/21 06:01:09;;;;;;;;;;;;;;;-1.41;100.00;94755.41;5115379;28;1527;-57
2023/12/21 06:03:35;;;;;;;;;;;;;;;-1.39;100.00;94750.88;5115624;28;969;-57
2023/12/21 06:06:01;;;;;;;;;;;;;;;-1.35;100.00;94741.88;5115309;28;1975;-57
2023/12/21 06:08:27;;;;;;;;;;;;;;;-1.40;100.00;94744.81;5121896;27;1957;-57
2023/12/21 06:10:53;;;;;;;;;;;;;;;-1.57;100.00;94745.88;5135853;27;1877;-58
2023/12/21 06:13:18;;;;;;;;;;;;;;;-1.73;99.15;94750.41;5135773;27;1100;-58
2023/12/21 06:15:45;;;;;;;;;;;;;;;-2.04;99.45;94759.38;5135969;27;988;-58
2023/12/21 06:18:11;;;;;;;;;;;;;;;-2.04;100.00;94748.88;5136074;27;1023;-58
2023/12/21 06:20:37;;;;;;;;;;;;;;;-1.94;100.00;94752.59;5135691;27;1089;-57
2023/12/21 06:23:03;;;;;;;;;;;;;;;-2.01;100.00;94752.16;5135567;27;1051;-58
2023/12/21 06:25:29;;;;;;;;;;;;;;;-2.08;100.00;94748.22;5135490;27;913;-58
2023/12/21 06:27:55;;;;;;;;;;;;;;;-2.01;100.00;94740.81;5135662;27;1905;-57
2023/12/21 06:30:21;;;;;;;;;;;;;;;-1.83;100.00;94729.19;5135665;27;1025;-58
2023/12/21 06:32:47;;;;;;;;;;;;;;;-1.66;100.00;94737.78;5135795;27;1129;-58
2023/12/21 06:35:13;;;;;;;;;;;;;;;-1.64;100.00;94747.22;5134172;27;991;-58
2023/12/21 06:37:39;;;;;;;;;;;;;;;-1.68;97.76;94752.75;5135457;27;1041;-58
2023/12/21 06:40:06;;;;;;;;;;;;;;;-2.04;98.50;94748.88;5135534;27;980;-58
2023/12/21 06:42:32;;;;;;;;;;;;;;;-2.08;100.00;94752.63;5135562;27;969;-58
2023/12/21 06:44:58;;;;;;;;;;;;;;;-2.22;99.51;94754.31;5135583;27;1021;-57
2023/12/21 06:47:24;;;;;;;;;;;;;;;-2.28;100.00;94762.53;5134996;27;2000;-58
2023/12/21 06:49:50;;;;;;;;;;;;;;;-2.04;100.00;94759.38;5135261;27;1054;-57
2023/12/21 06:52:17;;;;;;;;;;;;;;;-1.84;100.00;94763.34;5134311;27;978;-58
2023/12/21 06:54:43;;;;;;;;;;;;;;;-1.59;100.00;94757.44;5127112;27;1200;-58
2023/12/21 06:57:10;;;;;;;;;;;;;;;-1.48;100.00;94756.72;5114505;28;1027;-58
2023/12/21 06:59:36;;;;;;;;;;;;;;;-1.33;100.00;94760.97;5114274;28;1095;-58
2023/12/21 07:02:02;;;;;;;;;;;;;;;-1.23;99.36;94761.25;5114008;28;925;-58
2023/12/21 07:04:28;;;;;;;;;;;;;;;-1.44;99.42;94756.44;5113823;28;1016;-58
2023/12/21 07:06:55;;;;;;;;;;;;;;;-1.38;100.00;94752.59;5114198;28;1910;-58
2023/12/21 07:09:21;;;;;;;;;;;;;;;-1.23;99.87;94761.25;5114067;28;1083;-58
2023/12/21 07:11:47;;;;;;;;;;;;;;;-1.30;100.00;94757.34;5114481;28;997;-58
2023/12/21 07:14:13;;;;;;;;;;;;;;;-1.30;100.00;94757.34;5114047;28;1052;-58
2023/12/21 07:16:39;;;;;;;;;;;;;;;-1.40;99.70;94757.09;5112947;28;1024;-58
2023/12/21 07:19:06;;;;;;;;;;;;;;;-1.49;100.00;94757.69;5112842;28;1029;-58
2023/12/21 07:21:32;;;;;;;;;;;;;;;-1.35;100.00;94748.91;5112838;28;1065;-58
2023/12/21 07:23:58;;;;;;;;;;;;;;;-1.40;100.00;94754.47;5120855;27;1448;-57
2023/12/21 07:26:24;;;;;;;;;;;;;;;-1.47;100.00;94747.94;5124563;27;1901;-57
2023/12/21 07:28:50;;;;;;;;;;;;;;;-1.25;100.00;94752.63;5121414;27;1367;-58
2023/12/21 07:31:17;;;;;;;;;;;;;;;-0.95;100.00;94760.25;5124242;27;1321;-58
2023/12/21 07:33:43;;;;;;;;;;;;;;;-0.67;100.00;94750.56;5124583;27;1259;-58
2023/12/21 07:36:09;;;;;;;;;;;;;;;-0.30;98.94;94753.34;5121544;27;1526;-57
2023/12/21 07:38:36;;;;;;;;;;;;;;;-0.37;95.49;94752.91;5124043;27;1303;-57
2023/12/21 07:41:03;;;;;;;;;;;;;;;-0.68;98.85;94762.88;5124074;27;1298;-57
2023/12/21 07:43:30;;;;;;;;;;;;;;;-0.80;99.32;94756.66;5122562;28;1313;-56
2023/12/21 07:45:56;;;;;;;;;;;;;;;-0.63;98.76;94752.03;5124177;27;1263;-56
2023/12/21 07:48:22;;;;;;;;;;;;;;;-0.58;99.50;94751.75;5123612;27;1938;-57
2023/12/21 07:50:48;;;;;;;;;;;;;;;-0.63;100.00;94758.13;5122287;28;1246;-57
2023/12/21 07:53:14;;;;;;;;;;;;;;;-0.60;98.73;94757.94;5124064;27;1239;-56
2023/12/21 07:55:40;;;;;;;;;;;;;;;-0.41;100.00;94757.53;5125958;28;1294;-57
2023/12/21 07:58:06;;;;;;;;;;;;;;;-0.31;98.30;94770.88;5122220;27;1326;-57
2023/12/21 08:00:32;;;;;;;;;;;;;;;-0.39;98.40;94762.69;5122311;28;1339;-57
2023/12/21 08:02:58;;;;;;;;;;;;;;;-0.33;99.69;94771.94;5124873;27;1275;-56
2023/12/21 08:05:24;;;;;;;;;;;;;;;-0.11;97.83;94763.44;5128671;27;1298;-56
2023/12/21 08:07:51;;;;;;;;;;;;;;;-0.34;97.92;94764.97;5125196;27;1919;-55
2023/12/21 08:10:17;;;;;;;;;;;;;;;-0.22;97.97;94770.25;5129467;27;1243;-57
2023/12/21 08:12:43;;;;;;;;;;;;;;;-0.13;96.57;94765.28;5128783;27;1330;-57
2023/12/21 08:15:10;;;;;;;;;;;;;;;-0.03;97.41;94772.44;5127204;27;1243;-56
2023/12/21 08:17:36;;;;;;;;;;;;;;;0.08;96.01;94773.50;5126681;27;1231;-57
2023/12/21 08:20:05;;;;;;;;;;;;;;;0.02;96.33;94772.16;5127326;27;1263;-57
2023/12/21 08:22:31;;;;;;;;;;;;;;;0.08;96.93;94776.97;5127162;27;1274;-57
2023/12/21 08:24:58;;;;;;;;;;;;;;;0.32;97.31;94782.31;5126645;27;1224;-58
2023/12/21 08:27:24;;;;;;;;;;;;;;;0.33;96.00;94770.00;5128227;27;1913;-55
2023/12/21 08:29:50;;;;;;;;;;;;;;;0.55;96.38;94766.66;5126997;27;1582;-57
2023/12/21 08:32:18;;;;;;;;;;;;;;;0.69;94.64;94770.94;5126435;27;1235;-57
2023/12/21 08:34:44;;;;;;;;;;;;;;;0.92;94.58;94769.28;5128971;27;1279;-57
2023/12/21 08:37:12;;;;;;;;;;;;;;;0.92;95.83;94767.47;5127601;27;1215;-57
2023/12/21 08:39:39;;;;;;;;;;;;;;;0.91;95.84;94765.81;5128088;27;1259;-57
2023/12/21 08:42:08;;;;;;;;;;;;;;;0.91;95.04;94770.22;5122773;27;1256;-58
2023/12/21 08:44:40;;;;;;;;;;;;;;;0.84;97.02;94766.38;5127872;27;1359;-58
2023/12/21 08:47:06;;;;;;;;;;;;;;;0.87;97.84;94759.06;5126918;27;1906;-58
2023/12/21 08:49:32;;;;;;;;;;;;;;;0.77;99.23;94758.06;5125658;27;1283;-57
2023/12/21 08:51:58;;;;;;;;;;;;;;;0.62;99.10;94760.00;5125786;27;1296;-58
2023/12/21 08:54:24;;;;;;;;;;;;;;;0.80;98.88;94757.84;5126146;27;1228;-57
2023/12/21 08:56:50;;;;;;;;;;;;;;;0.72;97.55;94761.03;5128597;27;1251;-58
2023/12/21 08:59:17;;;;;;;;;;;;;;;0.74;99.31;94750.38;5125271;27;1322;-57
2023/12/21 09:01:43;;;;;;;;;;;;;;;0.76;98.84;94751.13;5126825;27;1204;-57
2023/12/21 09:04:09;;;;;;;;;;;;;;;0.58;98.19;94748.88;5119767;27;1392;-58
2023/12/21 09:06:35;;;;;;;;;;;;;;;0.58;99.16;94742.78;5116824;28;1898;-57
2023/12/21 09:09:02;;;;;;;;;;;;;;;0.85;99.34;94734.66;5116587;28;1096;-58
2023/12/21 09:11:28;;;;;;;;;;;;;;;1.09;97.11;94728.53;5116393;28;1080;-58
2023/12/21 09:13:55;;;;;;;;;;;;;;;1.14;97.19;94715.88;5116481;28;1007;-57
2023/12/21 09:16:22;;;;;;;;;;;;;;;1.22;97.96;94718.78;5115739;28;1048;-57
2023/12/21 09:18:51;;;;;;;;;;;;;;;1.21;97.11;94713.63;5116295;28;981;-56
2023/12/21 09:21:18;;;;;;;;;;;;;;;1.25;98.69;94707.16;5116199;28;1028;-57
2023/12/21 09:23:44;;;;;;;;;;;;;;;1.16;97.33;94706.06;5116432;28;1051;-57
2023/12/21 09:26:10;;;;;;;;;;;;;;;1.34;98.12;94693.31;5116157;28;1044;-57
2023/12/21 09:28:37;;;;;;;;;;;;;;;1.77;97.92;94699.72;5114952;28;1906;-57
2023/12/21 09:31:06;;;;;;;;;;;;;;;1.66;96.82;94704.00;5116137;28;1043;-56
2023/12/21 09:33:36;;;;;;;;;;;;;;;1.38;98.05;94709.72;5115835;28;1198;-57
2023/12/21 09:36:03;;;;;;;;;;;;;;;1.46;98.94;94709.97;5115995;28;1036;-56
2023/12/21 09:38:30;;;;;;;;;;;;;;;1.45;98.23;94708.31;5116056;28;1035;-57
2023/12/21 09:40:57;;;;;;;;;;;;;;;1.32;98.94;94703.94;5115876;28;1092;-57
2023/12/21 09:43:24;;;;;;;;;;;;;;;1.30;99.19;94699.75;5115879;28;1031;-57
2023/12/21 09:45:53;;;;;;;;;;;;;;;1.48;99.05;94697.50;5115745;28;1116;-58
2023/12/21 09:48:22;;;;;;;;;;;;;;;1.74;98.39;94696.34;5115523;28;1910;-58
2023/12/21 09:50:51;;;;;;;;;;;;;;;2.10;97.02;94690.97;5115969;28;1036;-58
2023/12/21 09:53:19;;;;;;;;;;;;;;;2.19;96.26;94684.97;5115729;28;976;-58
2023/12/21 09:55:46;;;;;;;;;;;;;;;2.38;95.40;94680.88;5131985;27;1208;-58
2023/12/21 09:58:13;;;;;;;;;;;;;;;2.34;97.37;94672.34;5136410;27;1055;-58
2023/12/21 10:00:39;;;;;;;;;;;;;;;2.43;96.90;94663.72;5136048;27;973;-58
2023/12/21 10:03:05;;;;;;;;;;;;;;;2.53;97.66;94661.16;5136294;27;1045;-58
2023/12/21 10:05:35;;;;;;;;;;;;;;;2.45;97.40;94658.31;5136286;27;987;-58
2023/12/21 10:08:02;;;;;;;;;;;;;;;2.60;98.61;94645.66;5135921;27;1909;-58
2023/12/21 10:10:28;;;;;;;;;;;;;;;2.82;96.76;94644.75;5135823;27;1036;-58
2023/12/21 10:12:54;;;;;;;;;;;;;;;2.74;98.37;94643.56;5135940;27;1007;-57
2023/12/21 10:15:20;;;;;;;;;;;;;;;2.95;97.98;94634.00;5135872;27;965;-56
2023/12/21 10:17:46;;;;;;;;;;;;;;;2.93;98.96;94632.31;5136070;27;1044;-56
2023/12/21 10:20:12;;;;;;;;;;;;;;;3.01;97.56;94622.94;5135887;27;1014;-56
2023/12/21 10:22:39;;;;;;;;;;;;;;;3.18;97.93;94621.50;5134693;27;1007;-56
2023/12/21 10:25:07;;;;;;;;;;;;;;;3.11;96.96;94621.19;5135963;27;979;-56
2023/12/21 10:27:34;;;;;;;;;;;;;;;2.78;98.67;94615.13;5134405;27;1879;-56
2023/12/21 10:30:01;;;;;;;;;;;;;;;2.80;98.23;94620.28;5135500;27;1040;-56
2023/12/21 10:32:28;;;;;;;;;;;;;;;2.79;99.46;94610.66;5135681;27;1047;-56
2023/12/21 10:34:54;;;;;;;;;;;;;;;2.85;99.18;94618.94;5135716;27;994;-56
2023/12/21 10:37:22;;;;;;;;;;;;;;;2.80;99.76;94607.91;5135516;27;1039;-56
2023/12/21 10:39:49;;;;;;;;;;;;;;;2.74;100.00;94593.41;5135396;27;1012;-56
2023/12/21 10:42:15;;;;;;;;;;;;;;;2.85;100.00;94587.25;5135298;27;976;-56
2023/12/21 10:44:44;;;;;;;;;;;;;;;3.11;100.00;94582.41;5135321;27;969;-56
2023/12/21 10:47:11;;;;;;;;;;;;;;;3.34;98.77;94574.34;5135156;27;1909;-57
2023/12/21 10:49:39;;;;;;;;;;;;;;;3.34;99.09;94574.34;5135370;27;965;-56
2023/12/21 10:52:05;;;;;;;;;;;;;;;3.27;100.00;94566.09;5135316;27;999;-56
2023/12/21 10:54:36;;;;;;;;;;;;;;;3.35;100.00;94561.97;5129001;27;1266;-56
2023/12/21 10:57:02;;;;;;;;;;;;;;;3.36;99.99;94551.25;5115046;28;966;-56
2023/12/21 10:59:29;;;;;;;;;;;;;;;3.54;99.88;94548.81;5114301;28;1041;-56
2023/12/21 11:01:55;;;;;;;;;;;;;;;3.48;100.00;94541.44;5114388;28;1083;-58
2023/12/21 11:04:23;;;;;;;;;;;;;;;3.54;100.00;94530.31;5114345;28;1032;-58
2023/12/21 11:06:49;;;;;;;;;;;;;;;3.59;99.23;94525.47;5114403;28;1911;-58
2023/12/21 11:09:19;;;;;;;;;;;;;;;3.76;98.98;94531.09;5114536;28;966;-57
2023/12/21 11:11:46;;;;;;;;;;;;;;;3.98;99.58;94528.22;5114192;28;1028;-57
2023/12/21 11:14:12;;;;;;;;;;;;;;;3.69;100.00;94522.88;5114468;28;1044;-57
2023/12/21 11:16:46;;;;;;;;;;;;;;;3.33;100.00;94519.81;5114371;28;1028;-57
2023/12/21 11:19:15;;;;;;;;;;;;;;;2.94;100.00;94514.34;5114199;28;1047;-57
2023/12/21 11:21:41;;;;;;;;;;;;;;;2.99;100.00;94506.84;5114154;28;985;-57
2023/12/21 11:24:07;;;;;;;;;;;;;;;3.37;100.00;94509.81;5113899;28;1021;-58
2023/12/21 11:26:36;;;;;;;;;;;;;;;3.57;100.00;94498.34;5114368;28;1905;-58
2023/12/21 11:29:07;;;;;;;;;;;;;;;3.71;100.00;94499.78;5114136;28;1003;-58
2023/12/21 11:31:37;;;;;;;;;;;;;;;3.72;100.00;94501.44;5114441;28;1127;-58
2023/12/21 11:34:13;;;;;;;;;;;;;;;3.80;100.00;94491.03;5113957;28;1016;-58
2023/12/21 11:36:39;;;;;;;;;;;;;;;3.85;99.84;94494.09;5114098;28;991;-57
2023/12/21 11:39:11;;;;;;;;;;;;;;;3.66;100.00;94484.31;5113641;28;1043;-57
2023/12/21 11:41:47;;;;;;;;;;;;;;;3.54;100.00;94472.16;5114087;28;1029;-57
2023/12/21 11:44:13;;;;;;;;;;;;;;;3.66;100.00;94486.97;5113818;28;1045;-57
2023/12/21 11:46:40;;;;;;;;;;;;;;;3.88;100.00;94474.47;5119021;27;1985;-57
2023/12/21 11:49:25;;;;;;;;;;;;;;;4.04;100.00;94480.06;5124255;28;1278;-57
2023/12/21 11:51:52;;;;;;;;;;;;;;;4.07;100.00;94458.63;5124580;27;1247;-57
2023/12/21 11:54:19;;;;;;;;;;;;;;;4.13;100.00;94454.59;5124527;28;1290;-57
2023/12/21 11:56:45;;;;;;;;;;;;;;;4.09;100.00;94450.56;5124022;28;1216;-57
2023/12/21 11:59:12;;;;;;;;;;;;;;;4.05;100.00;94451.81;5122231;28;1314;-57
2023/12/21 12:01:38;;;;;;;;;;;;;;;4.28;100.00;94453.19;5124396;27;1298;-57
2023/12/21 12:04:04;;;;;;;;;;;;;;;4.09;100.00;94445.25;5123603;28;1282;-57
2023/12/21 12:06:32;;;;;;;;;;;;;;;4.20;100.00;94450.41;5122373;27;1991;-56
2023/12/21 12:08:59;;;;;;;;;;;;;;;4.26;100.00;94454.31;5124189;27;1282;-57
2023/12/21 12:11:25;;;;;;;;;;;;;;;4.35;100.00;94439.41;5123595;28;1215;-57
2023/12/21 12:13:51;;;;;;;;;;;;;;;4.50;100.00;94432.72;5122187;27;1188;-57
2023/12/21 12:16:17;;;;;;;;;;;;;;;4.57;100.00;94422.38;5123887;28;1356;-57
2023/12/21 12:18:43;;;;;;;;;;;;;;;4.57;100.00;94422.38;5123387;28;1294;-57
2023/12/21 12:21:10;;;;;;;;;;;;;;;4.55;100.00;94419.84;5122538;28;1267;-57
2023/12/21 12:23:36;;;;;;;;;;;;;;;4.70;100.00;94407.00;5122439;28;1268;-57
2023/12/21 12:26:02;;;;;;;;;;;;;;;4.68;100.00;94403.66;5120799;27;1227;-57
2023/12/21 12:28:28;;;;;;;;;;;;;;;4.75;100.00;94401.28;5113218;28;1978;-57
2023/12/21 12:30:55;;;;;;;;;;;;;;;4.84;100.00;94388.03;5113608;28;1037;-57
2023/12/21 12:33:21;;;;;;;;;;;;;;;4.86;100.00;94391.34;5113437;28;1043;-57
2023/12/21 12:35:48;;;;;;;;;;;;;;;4.83;100.00;94396.94;5113556;28;962;-57
2023/12/21 12:38:16;;;;;;;;;;;;;;;4.66;100.00;94395.88;5113512;28;1079;-57
2023/12/21 12:40:42;;;;;;;;;;;;;;;4.69;100.00;94400.06;5113554;28;1020;-57
2023/12/21 12:43:08;;;;;;;;;;;;;;;4.65;100.00;94396.03;5113207;28;1003;-56
2023/12/21 12:45:34;;;;;;;;;;;;;;;4.63;100.00;94385.59;5111813;28;1141;-58
2023/12/21 12:48:02;;;;;;;;;;;;;;;4.69;100.00;94379.69;5112891;28;1913;-59
2023/12/21 12:50:29;;;;;;;;;;;;;;;4.96;100.00;94383.38;5114738;28;1048;-59